createdAt,value
2023-03-13T00:01:50.580Z,99.90
2023-03-13T00:04:17.364Z,99.90
2023-03-13T00:06:44.111Z,99.90
2023-03-13T00:09:14.332Z,99.90
2023-03-13T00:11:41.103Z,99.90
2023-03-13T00:14:08.232Z,99.90
2023-03-13T00:16:37.296Z,99.90
2023-03-13T00:19:05.852Z,99.90
2023-03-13T00:21:33.117Z,99.90
2023-03-13T00:24:00.369Z,99.90
2023-03-13T00:26:28.070Z,99.90
2023-03-13T00:28:55.529Z,99.90
2023-03-13T00:31:24.824Z,99.90
2023-03-13T00:33:54.756Z,99.90
2023-03-13T00:36:25.680Z,99.90
2023-03-13T00:38:53.752Z,99.90
2023-03-13T00:41:23.585Z,99.90
2023-03-13T00:43:50.849Z,99.90
2023-03-13T00:46:20.553Z,99.90
2023-03-13T00:48:47.466Z,99.90
2023-03-13T00:51:15.519Z,99.90
2023-03-13T00:53:42.867Z,99.90
2023-03-13T00:56:15.243Z,99.90
2023-03-13T00:58:44.395Z,99.90
2023-03-13T01:01:18.756Z,99.90
2023-03-13T01:03:49.010Z,99.90
2023-03-13T01:06:18.857Z,99.90
2023-03-13T01:08:45.795Z,99.90
2023-03-13T01:11:21.135Z,99.90
2023-03-13T01:13:48.278Z,99.90
2023-03-13T01:16:20.899Z,99.90
2023-03-13T01:18:50.462Z,99.90
2023-03-13T01:21:19.828Z,99.90
2023-03-13T01:23:47.681Z,99.90
2023-03-13T01:26:14.705Z,99.90
2023-03-13T01:28:42.030Z,99.90
2023-03-13T01:31:24.522Z,99.90
2023-03-13T01:33:54.506Z,99.90
2023-03-13T01:36:22.080Z,99.90
2023-03-13T01:38:50.637Z,99.90
2023-03-13T01:41:18.445Z,99.90
2023-03-13T01:43:46.065Z,99.90
2023-03-13T01:46:19.108Z,99.90
2023-03-13T01:49:09.473Z,99.90
2023-03-13T01:51:51.115Z,99.90
2023-03-13T01:54:30.933Z,99.90
2023-03-13T01:57:06.384Z,99.90
2023-03-13T01:59:44.002Z,99.90
2023-03-13T02:02:12.204Z,99.90
2023-03-13T02:04:41.905Z,99.90
2023-03-13T02:07:16.822Z,99.90
2023-03-13T02:09:49.322Z,99.90
2023-03-13T02:12:22.486Z,99.90
2023-03-13T02:14:51.241Z,99.90
2023-03-13T02:17:18.247Z,99.90
2023-03-13T02:19:54.320Z,99.90
2023-03-13T02:22:45.619Z,99.90
2023-03-13T02:25:24.502Z,99.90
2023-03-13T02:28:05.441Z,99.90
2023-03-13T02:30:34.667Z,99.90
2023-03-13T02:33:03.501Z,99.90
2023-03-13T02:35:32.001Z,99.90
2023-03-13T02:38:06.495Z,99.90
2023-03-13T02:40:37.711Z,99.90
2023-03-13T02:43:15.038Z,99.90
2023-03-13T02:45:41.774Z,99.90
2023-03-13T02:48:09.901Z,99.90
2023-03-13T02:50:37.793Z,99.90
2023-03-13T02:53:07.661Z,99.90
2023-03-13T02:55:40.344Z,99.90
2023-03-13T02:58:08.491Z,99.90
2023-03-13T03:00:37.228Z,99.90
2023-03-13T03:03:03.962Z,99.90
2023-03-13T03:05:30.594Z,99.90
2023-03-13T03:07:58.189Z,99.90
2023-03-13T03:10:25.392Z,99.90
2023-03-13T03:12:52.255Z,99.90
2023-03-13T03:15:19.171Z,99.90
2023-03-13T03:17:47.949Z,99.90
2023-03-13T03:20:14.823Z,99.90
2023-03-13T03:22:43.223Z,99.90
2023-03-13T03:25:10.188Z,99.90
2023-03-13T03:27:37.338Z,99.90
2023-03-13T03:30:08.091Z,99.90
2023-03-13T03:32:36.748Z,99.90
2023-03-13T03:35:03.671Z,99.90
2023-03-13T03:37:30.322Z,99.90
2023-03-13T03:39:58.162Z,99.90
2023-03-13T03:42:25.087Z,99.90
2023-03-13T03:44:51.799Z,99.90
2023-03-13T03:47:19.030Z,99.90
2023-03-13T03:49:47.629Z,99.90
2023-03-13T03:52:15.674Z,99.90
2023-03-13T03:54:43.848Z,99.90
2023-03-13T03:57:11.119Z,99.90
2023-03-13T03:59:39.218Z,99.90
2023-03-13T04:02:08.292Z,99.90
2023-03-13T04:04:35.462Z,99.90
2023-03-13T04:07:09.276Z,99.90
2023-03-13T04:09:35.922Z,99.90
2023-03-13T04:12:04.975Z,99.90
2023-03-13T04:14:35.868Z,99.90
2023-03-13T04:17:05.764Z,99.90
2023-03-13T04:19:32.736Z,99.90
2023-03-13T04:21:59.816Z,99.90
2023-03-13T04:24:26.673Z,99.90
2023-03-13T04:26:53.332Z,99.90
2023-03-13T04:29:20.771Z,99.90
2023-03-13T04:31:57.630Z,99.90
2023-03-13T04:34:44.561Z,99.90
2023-03-13T04:37:31.187Z,99.90
2023-03-13T04:40:13.787Z,99.90
2023-03-13T04:42:47.035Z,99.90
2023-03-13T04:45:33.924Z,99.90
2023-03-13T04:48:19.151Z,99.90
2023-03-13T04:50:56.014Z,99.90
2023-03-13T04:53:27.949Z,99.90
2023-03-13T04:56:41.476Z,99.90
2023-03-13T04:59:27.097Z,99.90
2023-03-13T05:02:00.588Z,99.90
2023-03-13T05:04:39.090Z,99.90
2023-03-13T05:07:23.463Z,99.90
2023-03-13T05:10:07.385Z,99.90
2023-03-13T05:12:36.926Z,99.90
2023-03-13T05:15:26.514Z,99.90
2023-03-13T05:18:13.904Z,99.90
2023-03-13T05:20:46.425Z,99.90
2023-03-13T05:23:35.979Z,99.90
2023-03-13T05:26:15.174Z,99.90
2023-03-13T05:28:52.416Z,99.90
2023-03-13T05:31:28.618Z,99.90
2023-03-13T05:34:22.697Z,99.90
2023-03-13T05:37:08.767Z,99.90
2023-03-13T05:39:58.003Z,99.90
2023-03-13T05:42:35.066Z,99.90
2023-03-13T05:45:37.064Z,99.90
2023-03-13T05:48:22.728Z,99.90
2023-03-13T05:51:04.493Z,99.90
2023-03-13T05:53:47.136Z,99.90
2023-03-13T05:56:27.874Z,99.90
2023-03-13T05:59:10.532Z,99.90
2023-03-13T06:01:55.926Z,99.90
2023-03-13T06:04:35.816Z,99.90
2023-03-13T06:07:02.630Z,99.90
2023-03-13T06:09:29.269Z,99.90
2023-03-13T06:11:56.841Z,99.90
2023-03-13T06:14:23.881Z,99.90
2023-03-13T06:17:13.651Z,99.90
2023-03-13T06:19:40.310Z,99.90
2023-03-13T06:22:07.170Z,99.90
2023-03-13T06:24:33.882Z,99.90
2023-03-13T06:27:00.555Z,99.90
2023-03-13T06:29:27.313Z,99.90
2023-03-13T06:31:54.123Z,99.90
2023-03-13T06:34:21.038Z,99.90
2023-03-13T06:36:47.643Z,99.90
2023-03-13T06:39:14.279Z,99.90
2023-03-13T06:41:40.943Z,99.90
2023-03-13T06:44:07.662Z,99.90
2023-03-13T06:46:34.335Z,99.90
2023-03-13T06:49:04.445Z,99.90
2023-03-13T06:51:31.572Z,99.90
2023-03-13T06:53:58.199Z,99.90
2023-03-13T06:56:24.908Z,99.90
2023-03-13T06:58:51.571Z,99.90
2023-03-13T07:01:18.911Z,99.90
2023-03-13T07:03:47.977Z,99.90
2023-03-13T07:06:15.694Z,99.90
2023-03-13T07:08:44.080Z,99.90
2023-03-13T07:11:13.136Z,99.90
2023-03-13T07:13:40.011Z,99.90
2023-03-13T07:16:09.135Z,99.90
2023-03-13T07:18:36.501Z,99.90
2023-03-13T07:21:05.229Z,99.90
2023-03-13T07:23:33.944Z,99.90
2023-03-13T07:26:10.423Z,99.90
2023-03-13T07:28:38.028Z,99.90
2023-03-13T07:31:12.551Z,99.90
2023-03-13T07:33:40.133Z,99.90
2023-03-13T07:36:07.811Z,99.90
2023-03-13T07:38:35.026Z,99.90
2023-03-13T07:41:01.866Z,99.90
2023-03-13T07:43:29.505Z,99.90
2023-03-13T07:45:57.231Z,99.90
2023-03-13T07:48:26.069Z,99.90
2023-03-13T07:50:54.793Z,99.90
2023-03-13T07:53:21.888Z,99.90
2023-03-13T07:55:56.830Z,99.90
2023-03-13T07:58:24.508Z,99.90
2023-03-13T08:00:51.624Z,99.90
2023-03-13T08:03:18.841Z,99.90
2023-03-13T08:05:46.113Z,99.90
2023-03-13T08:08:12.877Z,99.90
2023-03-13T08:10:40.086Z,99.90
2023-03-13T08:13:06.808Z,99.90
2023-03-13T08:15:33.900Z,99.90
2023-03-13T08:18:00.602Z,99.90
2023-03-13T08:20:27.227Z,99.90
2023-03-13T08:22:55.896Z,99.90
2023-03-13T08:25:22.792Z,99.90
2023-03-13T08:27:49.407Z,99.90
2023-03-13T08:30:16.191Z,99.90
2023-03-13T08:32:43.363Z,99.90
2023-03-13T08:35:10.105Z,99.90
2023-03-13T08:37:36.774Z,99.90
2023-03-13T08:40:03.997Z,99.90
2023-03-13T08:42:30.642Z,99.90
2023-03-13T08:44:57.314Z,99.90
2023-03-13T08:47:24.354Z,99.90
2023-03-13T08:49:50.958Z,99.90
2023-03-13T08:52:17.581Z,99.90
2023-03-13T08:54:44.780Z,99.90
2023-03-13T08:57:11.524Z,99.90
2023-03-13T08:59:38.142Z,99.90
2023-03-13T09:02:05.461Z,99.90
2023-03-13T09:04:32.547Z,99.90
2023-03-13T09:06:59.176Z,99.90
2023-03-13T09:09:25.806Z,99.90
2023-03-13T09:11:52.484Z,99.90
2023-03-13T09:14:19.103Z,99.90
2023-03-13T09:16:47.657Z,99.90
2023-03-13T09:19:15.395Z,99.90
2023-03-13T09:21:42.080Z,99.90
2023-03-13T09:24:08.894Z,99.90
2023-03-13T09:26:35.633Z,99.90
2023-03-13T09:29:02.493Z,99.90
2023-03-13T09:31:31.439Z,99.90
2023-03-13T09:33:58.333Z,99.90
2023-03-13T09:36:25.750Z,99.90
2023-03-13T09:38:54.885Z,99.90
2023-03-13T09:41:25.716Z,99.90
2023-03-13T09:44:11.296Z,99.90
2023-03-13T09:46:58.979Z,99.90
2023-03-13T09:50:00.718Z,99.90
2023-03-13T09:52:33.560Z,99.90
2023-03-13T09:55:28.949Z,99.90
2023-03-13T09:58:18.940Z,99.90
2023-03-13T10:01:00.900Z,99.90
2023-03-13T10:03:37.625Z,99.90
2023-03-13T10:06:18.796Z,99.90
2023-03-13T10:08:45.721Z,99.90
2023-03-13T10:11:23.773Z,99.90
2023-03-13T10:14:03.065Z,99.90
2023-03-13T10:16:55.046Z,99.90
2023-03-13T10:19:31.192Z,99.90
2023-03-13T10:22:01.527Z,99.90
2023-03-13T10:24:37.360Z,99.90
2023-03-13T10:27:04.307Z,99.90
2023-03-13T10:29:31.654Z,99.90
2023-03-13T10:32:00.975Z,99.90
2023-03-13T10:34:44.290Z,99.90
2023-03-13T10:37:15.746Z,99.90
2023-03-13T10:39:42.456Z,99.90
2023-03-13T10:42:39.873Z,99.90
2023-03-13T10:45:06.917Z,99.90
2023-03-13T10:47:35.085Z,99.90
2023-03-13T10:50:02.843Z,99.90
2023-03-13T10:52:40.308Z,99.90
2023-03-13T10:55:10.894Z,99.90
2023-03-13T10:57:38.213Z,99.90
2023-03-13T11:00:39.460Z,99.90
2023-03-13T11:03:23.391Z,99.90
2023-03-13T11:06:01.728Z,99.90
2023-03-13T11:08:41.713Z,99.90
2023-03-13T11:11:19.089Z,99.90
2023-03-13T11:13:46.372Z,99.90
2023-03-13T11:16:16.899Z,99.90
2023-03-13T11:18:59.487Z,99.90
2023-03-13T11:21:52.710Z,99.90
2023-03-13T11:24:48.970Z,99.90
2023-03-13T11:27:44.290Z,99.90
2023-03-13T11:30:50.405Z,99.90
2023-03-13T11:33:50.914Z,99.90
2023-03-13T11:36:20.585Z,99.90
2023-03-13T11:39:14.093Z,99.90
2023-03-13T11:41:40.732Z,99.90
2023-03-13T11:44:29.931Z,99.90
2023-03-13T11:47:00.026Z,99.90
2023-03-13T11:49:45.624Z,99.90
2023-03-13T11:52:21.077Z,99.90
2023-03-13T11:55:17.097Z,99.90
2023-03-13T11:58:05.364Z,99.90
2023-03-13T12:00:58.368Z,99.90
2023-03-13T12:03:44.613Z,99.90
2023-03-13T12:06:28.171Z,99.90
2023-03-13T12:09:14.079Z,99.90
2023-03-13T12:11:53.175Z,99.90
2023-03-13T12:14:39.271Z,99.90
2023-03-13T12:17:34.882Z,99.90
2023-03-13T12:20:09.071Z,99.90
2023-03-13T12:22:47.087Z,99.90
2023-03-13T12:25:42.992Z,99.90
2023-03-13T12:28:31.763Z,99.90
2023-03-13T12:31:08.021Z,99.90
2023-03-13T12:33:48.124Z,99.90
2023-03-13T12:36:26.210Z,99.90
2023-03-13T12:38:58.570Z,99.90
2023-03-13T12:41:43.466Z,99.90
2023-03-13T12:44:18.111Z,99.90
2023-03-13T12:47:01.219Z,99.90
2023-03-13T12:49:46.537Z,99.80
2023-03-13T12:52:38.706Z,98.70
2023-03-13T12:55:08.168Z,98.50
2023-03-13T12:58:02.474Z,99.10
2023-03-13T13:00:31.068Z,98.40
2023-03-13T13:03:27.238Z,98.50
2023-03-13T13:06:03.295Z,99.10
2023-03-13T13:08:37.782Z,98.60
2023-03-13T13:11:38.431Z,98.40
2023-03-13T13:14:25.292Z,98.50
2023-03-13T13:17:19.254Z,98.00
2023-03-13T13:19:47.525Z,98.50
2023-03-13T13:22:38.766Z,98.50
2023-03-13T13:25:11.539Z,98.30
2023-03-13T13:27:38.116Z,98.40
2023-03-13T13:30:16.838Z,98.60
2023-03-13T13:32:46.304Z,98.60
2023-03-13T13:35:13.506Z,98.60
2023-03-13T13:37:40.664Z,98.70
2023-03-13T13:40:31.685Z,98.90
2023-03-13T13:43:00.339Z,99.00
2023-03-13T13:45:37.647Z,99.30
2023-03-13T13:48:15.401Z,99.10
2023-03-13T13:51:20.269Z,99.60
2023-03-13T13:54:00.241Z,99.50
2023-03-13T13:56:32.654Z,99.90
2023-03-13T13:59:20.230Z,99.80
2023-03-13T14:01:48.955Z,99.90
2023-03-13T14:04:33.416Z,99.90
2023-03-13T14:07:03.473Z,99.90
2023-03-13T14:09:57.936Z,99.90
2023-03-13T14:12:28.298Z,99.90
2023-03-13T14:15:28.827Z,99.90
2023-03-13T14:18:02.023Z,99.90
2023-03-13T14:20:34.092Z,99.90
2023-03-13T14:23:11.543Z,99.90
2023-03-13T14:25:50.076Z,99.90
2023-03-13T14:28:18.024Z,99.90
2023-03-13T14:30:45.790Z,99.90
2023-03-13T14:33:12.715Z,99.90
2023-03-13T14:35:40.726Z,99.90
2023-03-13T14:38:08.131Z,99.90
2023-03-13T14:40:38.591Z,99.90
2023-03-13T14:43:16.538Z,99.60
2023-03-13T14:45:43.211Z,99.50
2023-03-13T14:48:33.600Z,99.40
2023-03-13T14:51:15.758Z,99.10
2023-03-13T14:54:00.885Z,98.70
2023-03-13T14:56:38.819Z,99.30
2023-03-13T14:59:17.348Z,99.50
2023-03-13T15:01:45.371Z,99.00
2023-03-13T15:04:12.292Z,98.40
2023-03-13T15:06:39.366Z,98.20
2023-03-13T15:09:18.784Z,98.40
2023-03-13T15:12:00.175Z,98.50
2023-03-13T15:14:38.069Z,98.70
2023-03-13T15:17:15.471Z,98.70
2023-03-13T15:19:43.297Z,98.40
2023-03-13T15:22:14.001Z,98.60
2023-03-13T15:24:42.207Z,98.30
2023-03-13T15:27:19.949Z,98.50
2023-03-13T15:29:47.431Z,98.20
2023-03-13T15:32:27.898Z,98.00
2023-03-13T15:34:58.356Z,98.00
2023-03-13T15:37:26.161Z,98.00
2023-03-13T15:39:53.971Z,98.00
2023-03-13T15:42:20.994Z,97.50
2023-03-13T15:44:47.677Z,97.90
2023-03-13T15:47:23.150Z,97.80
2023-03-13T15:49:49.804Z,98.20
2023-03-13T15:52:19.394Z,98.10
2023-03-13T15:54:46.774Z,97.60
2023-03-13T15:57:15.973Z,97.60
2023-03-13T15:59:44.045Z,97.80
2023-03-13T16:02:16.037Z,98.00
2023-03-13T16:04:43.906Z,98.10
2023-03-13T16:07:12.746Z,98.00
2023-03-13T16:09:40.782Z,97.20
2023-03-13T16:12:08.305Z,97.20
2023-03-13T16:14:35.536Z,96.80
2023-03-13T16:17:10.318Z,97.10
2023-03-13T16:19:36.969Z,96.40
2023-03-13T16:22:03.584Z,96.00
2023-03-13T16:24:30.211Z,95.70
2023-03-13T16:26:56.833Z,94.40
2023-03-13T16:29:23.528Z,92.90
2023-03-13T16:31:50.189Z,93.10
2023-03-13T16:34:18.101Z,93.00
2023-03-13T16:36:44.786Z,93.40
2023-03-13T16:39:15.637Z,93.40
2023-03-13T16:41:42.340Z,93.90
2023-03-13T16:44:09.103Z,93.80
2023-03-13T16:46:37.530Z,94.40
2023-03-13T16:49:04.846Z,93.80
2023-03-13T16:51:31.562Z,94.10
2023-03-13T16:54:00.314Z,94.10
2023-03-13T16:56:30.702Z,94.40
2023-03-13T16:58:58.321Z,94.30
2023-03-13T17:01:26.975Z,94.30
2023-03-13T17:03:54.340Z,94.50
2023-03-13T17:06:29.109Z,94.90
2023-03-13T17:08:56.285Z,95.00
2023-03-13T17:11:24.410Z,95.00
2023-03-13T17:13:52.534Z,95.30
2023-03-13T17:16:20.860Z,95.70
2023-03-13T17:18:51.450Z,95.50
2023-03-13T17:21:25.972Z,95.60
2023-03-13T17:23:53.396Z,95.80
2023-03-13T17:26:21.837Z,95.30
2023-03-13T17:28:50.782Z,95.50
2023-03-13T17:31:18.704Z,95.30
2023-03-13T17:33:46.439Z,95.80
2023-03-13T17:36:22.198Z,95.80
2023-03-13T17:38:51.418Z,95.60
2023-03-13T17:41:21.366Z,95.00
2023-03-13T17:43:48.018Z,95.60
2023-03-13T17:46:23.916Z,95.50
2023-03-13T17:48:53.263Z,95.90
2023-03-13T17:51:25.877Z,95.40
2023-03-13T17:53:55.057Z,95.30
2023-03-13T17:56:24.351Z,95.20
2023-03-13T17:58:54.266Z,95.00
2023-03-13T18:01:22.110Z,94.60
2023-03-13T18:03:49.490Z,93.90
2023-03-13T18:06:36.659Z,94.30
2023-03-13T18:09:08.951Z,94.10
2023-03-13T18:11:38.960Z,93.70
2023-03-13T18:14:06.569Z,93.30
2023-03-13T18:16:40.257Z,93.70
2023-03-13T18:19:17.149Z,93.40
2023-03-13T18:21:44.819Z,93.30
2023-03-13T18:24:13.353Z,93.60
2023-03-13T18:26:42.146Z,93.70
2023-03-13T18:29:25.900Z,93.90
2023-03-13T18:31:58.573Z,94.50
2023-03-13T18:34:25.896Z,94.10
2023-03-13T18:36:53.891Z,93.90
2023-03-13T18:39:20.772Z,94.10
2023-03-13T18:41:49.394Z,94.10
2023-03-13T18:44:18.774Z,93.70
2023-03-13T18:46:45.654Z,93.90
2023-03-13T18:49:21.056Z,93.80
2023-03-13T18:51:49.332Z,93.80
2023-03-13T18:54:16.309Z,93.60
2023-03-13T18:56:44.549Z,94.20
2023-03-13T18:59:19.225Z,94.40
2023-03-13T19:01:48.111Z,94.50
2023-03-13T19:04:18.795Z,94.60
2023-03-13T19:06:45.933Z,94.60
2023-03-13T19:09:41.212Z,94.70
2023-03-13T19:12:03.092Z,94.60
2023-03-13T19:14:29.986Z,94.60
2023-03-13T19:16:57.594Z,94.90
2023-03-13T19:19:25.447Z,95.00
2023-03-13T19:21:56.232Z,94.80
2023-03-13T19:24:26.371Z,94.80
2023-03-13T19:26:58.295Z,94.80
2023-03-13T19:29:27.105Z,95.50
2023-03-13T19:31:54.635Z,95.80
2023-03-13T19:34:21.783Z,96.00
2023-03-13T19:36:50.018Z,96.60
2023-03-13T19:39:25.734Z,96.50
2023-03-13T19:41:53.371Z,96.60
2023-03-13T19:44:21.323Z,97.20
2023-03-13T19:46:48.388Z,97.10
2023-03-13T19:49:18.115Z,97.10
2023-03-13T19:51:46.107Z,97.40
2023-03-13T19:54:13.639Z,97.60
2023-03-13T19:56:43.578Z,97.60
2023-03-13T19:59:19.396Z,97.80
2023-03-13T20:01:46.571Z,97.70
2023-03-13T20:04:13.976Z,97.70
2023-03-13T20:06:43.141Z,97.80
2023-03-13T20:09:14.721Z,98.30
2023-03-13T20:11:41.418Z,98.40
2023-03-13T20:14:08.515Z,98.80
2023-03-13T20:16:35.465Z,98.70
2023-03-13T20:19:02.659Z,98.80
2023-03-13T20:21:31.548Z,98.90
2023-03-13T20:23:58.934Z,98.90
2023-03-13T20:26:27.565Z,98.90
2023-03-13T20:28:55.589Z,99.10
2023-03-13T20:31:30.404Z,99.10
2023-03-13T20:33:57.965Z,99.00
2023-03-13T20:36:25.524Z,99.50
2023-03-13T20:38:52.546Z,99.40
2023-03-13T20:41:24.473Z,99.30
2023-03-13T20:43:52.460Z,99.50
2023-03-13T20:46:20.198Z,99.70
2023-03-13T20:48:46.919Z,99.50
2023-03-13T20:51:14.136Z,99.70
2023-03-13T20:53:41.895Z,99.80
2023-03-13T20:56:10.624Z,99.80
2023-03-13T20:58:37.810Z,99.70
2023-03-13T21:01:06.403Z,99.80
2023-03-13T21:03:35.290Z,99.90
2023-03-13T21:06:13.167Z,99.90
2023-03-13T21:08:40.160Z,99.90
2023-03-13T21:11:21.718Z,99.90
2023-03-13T21:13:49.272Z,99.90
2023-03-13T21:16:18.306Z,99.90
2023-03-13T21:18:45.161Z,99.90
2023-03-13T21:21:16.860Z,99.90
2023-03-13T21:23:43.988Z,99.90
2023-03-13T21:26:11.164Z,99.90
2023-03-13T21:28:38.499Z,99.90
2023-03-13T21:31:18.839Z,99.90
2023-03-13T21:33:46.579Z,99.90
2023-03-13T21:36:15.465Z,99.90
2023-03-13T21:38:42.246Z,99.90
2023-03-13T21:41:14.921Z,99.90
2023-03-13T21:43:42.287Z,99.90
2023-03-13T21:46:13.457Z,99.90
2023-03-13T21:48:41.669Z,99.90
2023-03-13T21:51:09.025Z,99.90
2023-03-13T21:53:36.597Z,99.90
2023-03-13T21:56:03.796Z,99.90
2023-03-13T21:58:30.458Z,99.90
2023-03-13T22:00:57.858Z,99.90
2023-03-13T22:03:26.608Z,99.90
2023-03-13T22:05:53.859Z,99.90
2023-03-13T22:08:20.548Z,99.90
2023-03-13T22:10:52.172Z,99.90
2023-03-13T22:13:19.071Z,99.90
2023-03-13T22:15:46.483Z,99.90
2023-03-13T22:18:14.743Z,99.90
2023-03-13T22:20:42.354Z,99.90
2023-03-13T22:23:11.063Z,99.90
2023-03-13T22:25:40.193Z,99.90
2023-03-13T22:28:07.040Z,99.90
2023-03-13T22:30:34.112Z,99.90
2023-03-13T22:33:00.801Z,99.90
2023-03-13T22:35:27.478Z,99.90
2023-03-13T22:37:54.168Z,99.90
2023-03-13T22:40:20.861Z,99.90
2023-03-13T22:42:47.481Z,99.90
2023-03-13T22:45:14.407Z,99.90
2023-03-13T22:47:41.044Z,99.90
2023-03-13T22:50:09.575Z,99.90
2023-03-13T22:52:36.478Z,99.90
2023-03-13T22:55:03.488Z,99.90
2023-03-13T22:57:30.240Z,99.90
2023-03-13T22:59:59.099Z,99.90
2023-03-13T23:02:26.651Z,99.90
2023-03-13T23:04:57.684Z,99.90
2023-03-13T23:07:29.466Z,99.90
2023-03-13T23:09:57.325Z,99.90
2023-03-13T23:12:24.277Z,99.90
2023-03-13T23:14:51.852Z,99.90
2023-03-13T23:17:18.681Z,99.90
2023-03-13T23:19:45.394Z,99.90
2023-03-13T23:22:17.559Z,99.90
2023-03-13T23:24:44.463Z,99.90
2023-03-13T23:27:11.129Z,99.90
2023-03-13T23:29:37.854Z,99.90
2023-03-13T23:32:04.602Z,99.90
2023-03-13T23:34:31.503Z,99.90
2023-03-13T23:36:58.252Z,99.90
2023-03-13T23:39:25.391Z,99.90
2023-03-13T23:41:52.010Z,99.90
2023-03-13T23:44:18.661Z,99.90
2023-03-13T23:46:45.293Z,99.90
2023-03-13T23:49:12.781Z,99.90
2023-03-13T23:51:39.745Z,99.90
2023-03-13T23:54:06.751Z,99.90
2023-03-13T23:56:33.735Z,99.90
2023-03-13T23:59:00.699Z,99.90
